sensor_id;sensor_type;location;lat;lon;timestamp;P1;durP1;ratioP1;P2;durP2;ratioP2
66342;SDS011;53144;51.524;5.080;2023-12-07T00:00:21;18.40;;;12.13;;
66342;SDS011;53144;51.524;5.080;2023-12-07T00:02:47;17.08;;;10.63;;
66342;SDS011;53144;51.524;5.080;2023-12-07T00:05:12;18.70;;;11.53;;
66342;SDS011;53144;51.524;5.080;2023-12-07T00:07:38;15.93;;;10.77;;
66342;SDS011;53144;51.524;5.080;2023-12-07T00:10:03;17.48;;;11.43;;
66342;SDS011;53144;51.524;5.080;2023-12-07T00:12:30;16.27;;;11.00;;
66342;SDS011;53144;51.524;5.080;2023-12-07T00:14:55;17.25;;;11.13;;
66342;SDS011;53144;51.524;5.080;2023-12-07T00:19:47;17.75;;;11.05;;
66342;SDS011;53144;51.524;5.080;2023-12-07T00:22:15;20.45;;;12.25;;
66342;SDS011;53144;51.524;5.080;2023-12-07T00:24:41;18.27;;;11.33;;
66342;SDS011;53144;51.524;5.080;2023-12-07T00:27:06;19.90;;;12.68;;
66342;SDS011;53144;51.524;5.080;2023-12-07T00:29:31;17.53;;;11.93;;
66342;SDS011;53144;51.524;5.080;2023-12-07T00:31:57;20.52;;;12.50;;
66342;SDS011;53144;51.524;5.080;2023-12-07T00:34:22;23.77;;;12.85;;
66342;SDS011;53144;51.524;5.080;2023-12-07T00:36:48;20.45;;;12.25;;
66342;SDS011;53144;51.524;5.080;2023-12-07T00:39:13;19.33;;;12.77;;
66342;SDS011;53144;51.524;5.080;2023-12-07T00:41:38;16.13;;;10.77;;
66342;SDS011;53144;51.524;5.080;2023-12-07T00:44:04;17.42;;;10.98;;
66342;SDS011;53144;51.524;5.080;2023-12-07T00:46:30;15.90;;;10.65;;
66342;SDS011;53144;51.524;5.080;2023-12-07T00:48:56;17.33;;;10.77;;
66342;SDS011;53144;51.524;5.080;2023-12-07T00:51:21;17.73;;;10.75;;
66342;SDS011;53144;51.524;5.080;2023-12-07T00:53:47;14.98;;;11.30;;
66342;SDS011;53144;51.524;5.080;2023-12-07T00:56:12;16.30;;;10.45;;
66342;SDS011;53144;51.524;5.080;2023-12-07T00:58:38;16.23;;;10.35;;
66342;SDS011;53144;51.524;5.080;2023-12-07T01:01:03;18.38;;;11.00;;
66342;SDS011;53144;51.524;5.080;2023-12-07T01:03:29;14.70;;;11.00;;
66342;SDS011;53144;51.524;5.080;2023-12-07T01:05:55;20.15;;;11.45;;
66342;SDS011;53144;51.524;5.080;2023-12-07T01:08:20;17.60;;;11.70;;
66342;SDS011;53144;51.524;5.080;2023-12-07T01:10:46;20.77;;;11.95;;
66342;SDS011;53144;51.524;5.080;2023-12-07T01:13:11;16.70;;;12.07;;
66342;SDS011;53144;51.524;5.080;2023-12-07T01:15:37;18.38;;;11.73;;
66342;SDS011;53144;51.524;5.080;2023-12-07T01:18:02;18.52;;;11.85;;
66342;SDS011;53144;51.524;5.080;2023-12-07T01:20:28;20.45;;;12.07;;
66342;SDS011;53144;51.524;5.080;2023-12-07T01:22:53;19.75;;;12.02;;
66342;SDS011;53144;51.524;5.080;2023-12-07T01:25:19;16.45;;;12.05;;
66342;SDS011;53144;51.524;5.080;2023-12-07T01:27:46;20.30;;;12.25;;
66342;SDS011;53144;51.524;5.080;2023-12-07T01:30:12;21.13;;;12.73;;
66342;SDS011;53144;51.524;5.080;2023-12-07T01:32:38;22.15;;;12.98;;
66342;SDS011;53144;51.524;5.080;2023-12-07T01:35:03;20.50;;;13.10;;
66342;SDS011;53144;51.524;5.080;2023-12-07T01:37:29;22.48;;;13.48;;
66342;SDS011;53144;51.524;5.080;2023-12-07T01:42:21;20.08;;;11.45;;
66342;SDS011;53144;51.524;5.080;2023-12-07T01:44:47;19.73;;;12.93;;
66342;SDS011;53144;51.524;5.080;2023-12-07T01:47:12;27.60;;;12.70;;
66342;SDS011;53144;51.524;5.080;2023-12-07T01:49:37;18.40;;;13.27;;
66342;SDS011;53144;51.524;5.080;2023-12-07T01:52:05;19.40;;;12.73;;
66342;SDS011;53144;51.524;5.080;2023-12-07T01:54:31;23.85;;;14.43;;
66342;SDS011;53144;51.524;5.080;2023-12-07T01:56:56;59.17;;;19.55;;
66342;SDS011;53144;51.524;5.080;2023-12-07T01:59:22;39.28;;;19.48;;
66342;SDS011;53144;51.524;5.080;2023-12-07T02:01:48;71.45;;;20.38;;
66342;SDS011;53144;51.524;5.080;2023-12-07T02:04:14;51.47;;;19.95;;
66342;SDS011;53144;51.524;5.080;2023-12-07T02:06:40;36.67;;;17.63;;
66342;SDS011;53144;51.524;5.080;2023-12-07T02:09:05;61.83;;;18.70;;
66342;SDS011;53144;51.524;5.080;2023-12-07T02:11:31;79.28;;;18.70;;
66342;SDS011;53144;51.524;5.080;2023-12-07T02:13:56;92.35;;;18.90;;
66342;SDS011;53144;51.524;5.080;2023-12-07T02:22:03;51.70;;;15.75;;
66342;SDS011;53144;51.524;5.080;2023-12-07T02:24:37;31.17;;;16.48;;
66342;SDS011;53144;51.524;5.080;2023-12-07T02:27:05;39.00;;;16.13;;
66342;SDS011;53144;51.524;5.080;2023-12-07T02:29:31;83.10;;;17.52;;
66342;SDS011;53144;51.524;5.080;2023-12-07T02:31:56;77.38;;;16.65;;
66342;SDS011;53144;51.524;5.080;2023-12-07T02:34:21;47.03;;;16.13;;
66342;SDS011;53144;51.524;5.080;2023-12-07T02:36:47;98.50;;;18.40;;
66342;SDS011;53144;51.524;5.080;2023-12-07T02:39:14;34.35;;;17.40;;
66342;SDS011;53144;51.524;5.080;2023-12-07T02:41:40;65.75;;;19.60;;
66342;SDS011;53144;51.524;5.080;2023-12-07T02:44:06;52.53;;;17.38;;
66342;SDS011;53144;51.524;5.080;2023-12-07T02:48:58;49.20;;;15.32;;
66342;SDS011;53144;51.524;5.080;2023-12-07T02:51:23;63.67;;;16.85;;
66342;SDS011;53144;51.524;5.080;2023-12-07T02:53:49;34.50;;;15.20;;
66342;SDS011;53144;51.524;5.080;2023-12-07T02:56:14;36.47;;;16.42;;
66342;SDS011;53144;51.524;5.080;2023-12-07T02:58:40;65.82;;;17.50;;
66342;SDS011;53144;51.524;5.080;2023-12-07T03:01:05;44.88;;;17.90;;
66342;SDS011;53144;51.524;5.080;2023-12-07T03:03:31;43.88;;;16.45;;
66342;SDS011;53144;51.524;5.080;2023-12-07T03:05:56;40.80;;;16.45;;
66342;SDS011;53144;51.524;5.080;2023-12-07T03:08:22;41.13;;;16.92;;
66342;SDS011;53144;51.524;5.080;2023-12-07T03:10:47;38.53;;;16.70;;
66342;SDS011;53144;51.524;5.080;2023-12-07T03:13:12;47.33;;;15.73;;
66342;SDS011;53144;51.524;5.080;2023-12-07T03:15:38;52.97;;;16.15;;
66342;SDS011;53144;51.524;5.080;2023-12-07T03:18:04;46.15;;;15.48;;
66342;SDS011;53144;51.524;5.080;2023-12-07T03:22:55;32.97;;;14.32;;
66342;SDS011;53144;51.524;5.080;2023-12-07T03:25:24;31.17;;;13.35;;
66342;SDS011;53144;51.524;5.080;2023-12-07T03:27:50;21.80;;;13.13;;
66342;SDS011;53144;51.524;5.080;2023-12-07T03:30:15;72.13;;;12.47;;
66342;SDS011;53144;51.524;5.080;2023-12-07T03:32:41;37.85;;;14.07;;
66342;SDS011;53144;51.524;5.080;2023-12-07T03:35:06;31.05;;;12.85;;
66342;SDS011;53144;51.524;5.080;2023-12-07T03:37:31;40.70;;;13.13;;
66342;SDS011;53144;51.524;5.080;2023-12-07T03:39:57;19.75;;;12.68;;
66342;SDS011;53144;51.524;5.080;2023-12-07T03:42:22;29.83;;;12.15;;
66342;SDS011;53144;51.524;5.080;2023-12-07T03:44:48;34.67;;;12.50;;
66342;SDS011;53144;51.524;5.080;2023-12-07T03:47:13;70.90;;;11.90;;
66342;SDS011;53144;51.524;5.080;2023-12-07T03:49:39;40.07;;;12.10;;
66342;SDS011;53144;51.524;5.080;2023-12-07T03:52:06;33.65;;;11.98;;
66342;SDS011;53144;51.524;5.080;2023-12-07T03:54:31;26.27;;;11.18;;
66342;SDS011;53144;51.524;5.080;2023-12-07T03:56:57;25.50;;;11.85;;
66342;SDS011;53144;51.524;5.080;2023-12-07T03:59:23;20.08;;;11.80;;
66342;SDS011;53144;51.524;5.080;2023-12-07T04:01:48;21.58;;;10.65;;
66342;SDS011;53144;51.524;5.080;2023-12-07T04:04:13;31.80;;;11.10;;
66342;SDS011;53144;51.524;5.080;2023-12-07T04:06:39;38.88;;;11.75;;
66342;SDS011;53144;51.524;5.080;2023-12-07T04:09:04;59.28;;;11.95;;
66342;SDS011;53144;51.524;5.080;2023-12-07T04:11:30;27.35;;;11.82;;
66342;SDS011;53144;51.524;5.080;2023-12-07T04:13:55;31.75;;;10.93;;
66342;SDS011;53144;51.524;5.080;2023-12-07T04:16:20;31.98;;;10.98;;
66342;SDS011;53144;51.524;5.080;2023-12-07T04:18:49;29.10;;;10.50;;
66342;SDS011;53144;51.524;5.080;2023-12-07T04:21:14;28.23;;;11.23;;
66342;SDS011;53144;51.524;5.080;2023-12-07T04:23:40;31.00;;;11.25;;
66342;SDS011;53144;51.524;5.080;2023-12-07T04:26:05;45.30;;;12.13;;
66342;SDS011;53144;51.524;5.080;2023-12-07T04:28:30;21.88;;;10.60;;
66342;SDS011;53144;51.524;5.080;2023-12-07T04:30:56;24.98;;;10.60;;
66342;SDS011;53144;51.524;5.080;2023-12-07T04:33:21;26.95;;;10.20;;
66342;SDS011;53144;51.524;5.080;2023-12-07T04:35:47;36.72;;;11.05;;
66342;SDS011;53144;51.524;5.080;2023-12-07T04:38:12;25.93;;;10.70;;
66342;SDS011;53144;51.524;5.080;2023-12-07T04:40:38;44.55;;;11.05;;
66342;SDS011;53144;51.524;5.080;2023-12-07T04:43:03;67.57;;;12.00;;
66342;SDS011;53144;51.524;5.080;2023-12-07T04:45:28;54.10;;;10.77;;
66342;SDS011;53144;51.524;5.080;2023-12-07T04:47:54;34.50;;;10.10;;
66342;SDS011;53144;51.524;5.080;2023-12-07T04:50:19;41.60;;;10.70;;
66342;SDS011;53144;51.524;5.080;2023-12-07T04:52:45;83.20;;;11.27;;
66342;SDS011;53144;51.524;5.080;2023-12-07T04:55:10;28.42;;;9.82;;
66342;SDS011;53144;51.524;5.080;2023-12-07T04:57:36;51.40;;;10.70;;
66342;SDS011;53144;51.524;5.080;2023-12-07T05:00:04;24.88;;;11.77;;
66342;SDS011;53144;51.524;5.080;2023-12-07T05:02:34;69.68;;;10.45;;
66342;SDS011;53144;51.524;5.080;2023-12-07T05:05:00;65.80;;;11.70;;
66342;SDS011;53144;51.524;5.080;2023-12-07T05:07:25;35.85;;;9.95;;
66342;SDS011;53144;51.524;5.080;2023-12-07T05:09:54;38.85;;;8.48;;
66342;SDS011;53144;51.524;5.080;2023-12-07T05:12:19;27.58;;;9.07;;
66342;SDS011;53144;51.524;5.080;2023-12-07T05:14:45;45.13;;;10.82;;
66342;SDS011;53144;51.524;5.080;2023-12-07T05:17:10;23.10;;;9.05;;
66342;SDS011;53144;51.524;5.080;2023-12-07T05:19:36;22.48;;;10.32;;
66342;SDS011;53144;51.524;5.080;2023-12-07T05:22:01;36.28;;;10.60;;
66342;SDS011;53144;51.524;5.080;2023-12-07T05:24:27;32.30;;;9.73;;
66342;SDS011;53144;51.524;5.080;2023-12-07T05:26:53;33.60;;;10.00;;
66342;SDS011;53144;51.524;5.080;2023-12-07T05:29:18;40.47;;;9.88;;
66342;SDS011;53144;51.524;5.080;2023-12-07T05:31:44;50.78;;;11.05;;
66342;SDS011;53144;51.524;5.080;2023-12-07T05:34:09;39.53;;;10.50;;
66342;SDS011;53144;51.524;5.080;2023-12-07T05:36:34;35.00;;;10.82;;
66342;SDS011;53144;51.524;5.080;2023-12-07T05:39:00;33.78;;;10.45;;
66342;SDS011;53144;51.524;5.080;2023-12-07T05:41:26;39.80;;;11.65;;
66342;SDS011;53144;51.524;5.080;2023-12-07T05:43:52;35.95;;;10.43;;
66342;SDS011;53144;51.524;5.080;2023-12-07T05:48:43;57.47;;;10.93;;
66342;SDS011;53144;51.524;5.080;2023-12-07T05:51:18;42.08;;;10.55;;
66342;SDS011;53144;51.524;5.080;2023-12-07T05:53:45;36.90;;;10.75;;
66342;SDS011;53144;51.524;5.080;2023-12-07T05:56:10;35.28;;;11.40;;
66342;SDS011;53144;51.524;5.080;2023-12-07T05:58:36;25.88;;;11.10;;
66342;SDS011;53144;51.524;5.080;2023-12-07T06:01:02;41.20;;;11.88;;
66342;SDS011;53144;51.524;5.080;2023-12-07T06:03:28;43.00;;;11.20;;
66342;SDS011;53144;51.524;5.080;2023-12-07T06:08:19;34.58;;;10.93;;
66342;SDS011;53144;51.524;5.080;2023-12-07T06:10:45;52.58;;;13.52;;
66342;SDS011;53144;51.524;5.080;2023-12-07T06:13:12;53.65;;;12.98;;
66342;SDS011;53144;51.524;5.080;2023-12-07T06:15:38;67.07;;;13.23;;
66342;SDS011;53144;51.524;5.080;2023-12-07T06:18:04;38.45;;;12.43;;
66342;SDS011;53144;51.524;5.080;2023-12-07T06:20:29;46.80;;;13.07;;
66342;SDS011;53144;51.524;5.080;2023-12-07T06:22:54;48.00;;;12.43;;
66342;SDS011;53144;51.524;5.080;2023-12-07T06:25:20;40.10;;;12.20;;
66342;SDS011;53144;51.524;5.080;2023-12-07T06:27:45;43.25;;;13.25;;
66342;SDS011;53144;51.524;5.080;2023-12-07T06:30:11;59.50;;;13.85;;
66342;SDS011;53144;51.524;5.080;2023-12-07T06:32:37;65.20;;;14.77;;
66342;SDS011;53144;51.524;5.080;2023-12-07T06:35:02;63.50;;;13.73;;
66342;SDS011;53144;51.524;5.080;2023-12-07T06:37:31;57.40;;;15.63;;
66342;SDS011;53144;51.524;5.080;2023-12-07T06:39:56;99.70;;;16.65;;
66342;SDS011;53144;51.524;5.080;2023-12-07T06:42:24;47.83;;;14.98;;
66342;SDS011;53144;51.524;5.080;2023-12-07T06:44:50;111.97;;;17.60;;
66342;SDS011;53144;51.524;5.080;2023-12-07T06:47:16;60.30;;;16.30;;
66342;SDS011;53144;51.524;5.080;2023-12-07T06:49:43;45.63;;;14.75;;
66342;SDS011;53144;51.524;5.080;2023-12-07T06:52:09;47.00;;;16.00;;
66342;SDS011;53144;51.524;5.080;2023-12-07T06:54:36;46.47;;;15.23;;
66342;SDS011;53144;51.524;5.080;2023-12-07T06:57:01;47.30;;;14.90;;
66342;SDS011;53144;51.524;5.080;2023-12-07T06:59:27;40.63;;;14.73;;
66342;SDS011;53144;51.524;5.080;2023-12-07T07:01:53;51.78;;;14.88;;
66342;SDS011;53144;51.524;5.080;2023-12-07T07:04:19;50.58;;;15.90;;
66342;SDS011;53144;51.524;5.080;2023-12-07T07:06:44;48.90;;;16.48;;
66342;SDS011;53144;51.524;5.080;2023-12-07T07:09:10;50.75;;;16.70;;
66342;SDS011;53144;51.524;5.080;2023-12-07T07:14:02;45.70;;;15.88;;
66342;SDS011;53144;51.524;5.080;2023-12-07T07:16:27;52.47;;;17.75;;
66342;SDS011;53144;51.524;5.080;2023-12-07T07:18:52;47.03;;;16.38;;
66342;SDS011;53144;51.524;5.080;2023-12-07T07:21:18;50.60;;;18.23;;
66342;SDS011;53144;51.524;5.080;2023-12-07T07:23:45;56.95;;;19.15;;
66342;SDS011;53144;51.524;5.080;2023-12-07T07:26:10;52.22;;;17.70;;
66342;SDS011;53144;51.524;5.080;2023-12-07T07:28:36;45.03;;;16.95;;
66342;SDS011;53144;51.524;5.080;2023-12-07T07:31:02;54.83;;;16.10;;
66342;SDS011;53144;51.524;5.080;2023-12-07T07:33:27;43.03;;;17.35;;
66342;SDS011;53144;51.524;5.080;2023-12-07T07:35:53;50.13;;;16.08;;
66342;SDS011;53144;51.524;5.080;2023-12-07T07:38:18;43.22;;;16.83;;
66342;SDS011;53144;51.524;5.080;2023-12-07T07:40:44;48.75;;;17.17;;
66342;SDS011;53144;51.524;5.080;2023-12-07T07:43:13;47.95;;;18.15;;
66342;SDS011;53144;51.524;5.080;2023-12-07T07:45:39;60.10;;;18.98;;
66342;SDS011;53144;51.524;5.080;2023-12-07T07:48:04;55.72;;;18.23;;
66342;SDS011;53144;51.524;5.080;2023-12-07T07:50:30;52.33;;;18.10;;
66342;SDS011;53144;51.524;5.080;2023-12-07T07:52:55;48.75;;;17.83;;
66342;SDS011;53144;51.524;5.080;2023-12-07T07:55:24;47.88;;;17.75;;
66342;SDS011;53144;51.524;5.080;2023-12-07T07:57:52;44.78;;;18.15;;
66342;SDS011;53144;51.524;5.080;2023-12-07T08:00:17;51.33;;;18.77;;
66342;SDS011;53144;51.524;5.080;2023-12-07T08:02:44;57.90;;;19.70;;
66342;SDS011;53144;51.524;5.080;2023-12-07T08:05:09;48.08;;;17.90;;
66342;SDS011;53144;51.524;5.080;2023-12-07T08:07:36;43.28;;;17.83;;
66342;SDS011;53144;51.524;5.080;2023-12-07T08:10:01;48.50;;;17.77;;
66342;SDS011;53144;51.524;5.080;2023-12-07T08:12:28;43.67;;;14.77;;
66342;SDS011;53144;51.524;5.080;2023-12-07T08:14:54;52.83;;;16.40;;
66342;SDS011;53144;51.524;5.080;2023-12-07T08:17:19;39.90;;;15.70;;
66342;SDS011;53144;51.524;5.080;2023-12-07T08:19:46;35.25;;;15.20;;
66342;SDS011;53144;51.524;5.080;2023-12-07T08:22:12;43.38;;;15.48;;
66342;SDS011;53144;51.524;5.080;2023-12-07T08:24:41;36.20;;;15.23;;
66342;SDS011;53144;51.524;5.080;2023-12-07T08:27:06;35.53;;;15.10;;
66342;SDS011;53144;51.524;5.080;2023-12-07T08:29:31;41.30;;;14.10;;
66342;SDS011;53144;51.524;5.080;2023-12-07T08:31:57;38.03;;;15.35;;
66342;SDS011;53144;51.524;5.080;2023-12-07T08:34:22;35.97;;;15.90;;
66342;SDS011;53144;51.524;5.080;2023-12-07T08:36:49;50.63;;;15.63;;
66342;SDS011;53144;51.524;5.080;2023-12-07T08:39:14;40.83;;;15.90;;
66342;SDS011;53144;51.524;5.080;2023-12-07T08:41:40;39.42;;;16.13;;
66342;SDS011;53144;51.524;5.080;2023-12-07T08:44:05;40.08;;;16.88;;
66342;SDS011;53144;51.524;5.080;2023-12-07T08:46:31;40.05;;;17.90;;
66342;SDS011;53144;51.524;5.080;2023-12-07T08:48:56;43.92;;;18.17;;
66342;SDS011;53144;51.524;5.080;2023-12-07T08:51:22;43.97;;;18.25;;
66342;SDS011;53144;51.524;5.080;2023-12-07T08:53:48;44.15;;;19.75;;
66342;SDS011;53144;51.524;5.080;2023-12-07T08:56:14;45.88;;;19.50;;
66342;SDS011;53144;51.524;5.080;2023-12-07T08:58:40;45.63;;;19.45;;
66342;SDS011;53144;51.524;5.080;2023-12-07T09:01:06;47.03;;;21.25;;
66342;SDS011;53144;51.524;5.080;2023-12-07T09:03:31;44.03;;;20.67;;
66342;SDS011;53144;51.524;5.080;2023-12-07T09:05:58;45.58;;;19.90;;
66342;SDS011;53144;51.524;5.080;2023-12-07T09:08:24;48.00;;;21.30;;
66342;SDS011;53144;51.524;5.080;2023-12-07T09:10:49;41.45;;;19.42;;
66342;SDS011;53144;51.524;5.080;2023-12-07T09:13:16;41.90;;;20.50;;
66342;SDS011;53144;51.524;5.080;2023-12-07T09:15:42;41.60;;;20.30;;
66342;SDS011;53144;51.524;5.080;2023-12-07T09:18:08;39.40;;;20.27;;
66342;SDS011;53144;51.524;5.080;2023-12-07T09:20:33;50.75;;;21.00;;
66342;SDS011;53144;51.524;5.080;2023-12-07T09:22:58;46.45;;;21.73;;
66342;SDS011;53144;51.524;5.080;2023-12-07T09:25:24;43.38;;;20.30;;
66342;SDS011;53144;51.524;5.080;2023-12-07T09:27:53;42.30;;;21.17;;
66342;SDS011;53144;51.524;5.080;2023-12-07T09:30:18;40.85;;;20.48;;
66342;SDS011;53144;51.524;5.080;2023-12-07T09:32:44;43.13;;;21.15;;
66342;SDS011;53144;51.524;5.080;2023-12-07T09:35:09;43.97;;;22.15;;
66342;SDS011;53144;51.524;5.080;2023-12-07T09:37:55;39.50;;;20.98;;
66342;SDS011;53144;51.524;5.080;2023-12-07T09:40:21;40.70;;;20.65;;
66342;SDS011;53144;51.524;5.080;2023-12-07T09:42:47;36.08;;;19.48;;
66342;SDS011;53144;51.524;5.080;2023-12-07T09:47:59;26.30;;;15.52;;
66342;SDS011;53144;51.524;5.080;2023-12-07T09:52:53;27.95;;;14.60;;
66342;SDS011;53144;51.524;5.080;2023-12-07T09:55:22;26.80;;;12.95;;
66342;SDS011;53144;51.524;5.080;2023-12-07T09:57:48;26.38;;;14.65;;
66342;SDS011;53144;51.524;5.080;2023-12-07T10:02:40;26.42;;;15.75;;
66342;SDS011;53144;51.524;5.080;2023-12-07T10:05:11;29.85;;;16.73;;
66342;SDS011;53144;51.524;5.080;2023-12-07T10:10:12;24.95;;;14.05;;
66342;SDS011;53144;51.524;5.080;2023-12-07T10:12:48;19.83;;;12.93;;
66342;SDS011;53144;51.524;5.080;2023-12-07T10:15:16;22.27;;;15.52;;
66342;SDS011;53144;51.524;5.080;2023-12-07T10:17:52;24.38;;;14.27;;
66342;SDS011;53144;51.524;5.080;2023-12-07T10:20:28;19.70;;;12.03;;
66342;SDS011;53144;51.524;5.080;2023-12-07T10:23:04;22.73;;;13.13;;
66342;SDS011;53144;51.524;5.080;2023-12-07T10:25:31;23.15;;;12.90;;
66342;SDS011;53144;51.524;5.080;2023-12-07T10:27:57;22.17;;;12.73;;
66342;SDS011;53144;51.524;5.080;2023-12-07T10:30:22;17.73;;;11.57;;
66342;SDS011;53144;51.524;5.080;2023-12-07T10:32:51;17.48;;;11.77;;
66342;SDS011;53144;51.524;5.080;2023-12-07T10:35:17;22.13;;;13.38;;
66342;SDS011;53144;51.524;5.080;2023-12-07T10:37:44;18.55;;;12.85;;
66342;SDS011;53144;51.524;5.080;2023-12-07T10:40:09;18.45;;;11.68;;
66342;SDS011;53144;51.524;5.080;2023-12-07T10:42:35;17.52;;;12.57;;
66342;SDS011;53144;51.524;5.080;2023-12-07T10:45:03;20.90;;;12.45;;
66342;SDS011;53144;51.524;5.080;2023-12-07T10:47:31;19.73;;;12.05;;
66342;SDS011;53144;51.524;5.080;2023-12-07T10:50:00;18.35;;;11.57;;
66342;SDS011;53144;51.524;5.080;2023-12-07T10:52:27;18.80;;;12.00;;
66342;SDS011;53144;51.524;5.080;2023-12-07T10:55:04;19.75;;;11.88;;
66342;SDS011;53144;51.524;5.080;2023-12-07T10:57:33;16.45;;;11.30;;
66342;SDS011;53144;51.524;5.080;2023-12-07T10:59:59;15.50;;;11.05;;
66342;SDS011;53144;51.524;5.080;2023-12-07T11:02:29;18.05;;;11.43;;
66342;SDS011;53144;51.524;5.080;2023-12-07T11:04:57;17.15;;;11.88;;
66342;SDS011;53144;51.524;5.080;2023-12-07T11:07:25;18.60;;;11.50;;
66342;SDS011;53144;51.524;5.080;2023-12-07T11:09:58;17.27;;;11.52;;
66342;SDS011;53144;51.524;5.080;2023-12-07T11:12:29;16.92;;;11.18;;
66342;SDS011;53144;51.524;5.080;2023-12-07T11:15:26;20.25;;;11.32;;
66342;SDS011;53144;51.524;5.080;2023-12-07T11:17:56;22.13;;;11.50;;
66342;SDS011;53144;51.524;5.080;2023-12-07T11:20:22;16.65;;;11.75;;
66342;SDS011;53144;51.524;5.080;2023-12-07T11:22:58;21.48;;;11.93;;
66342;SDS011;53144;51.524;5.080;2023-12-07T11:25:24;17.23;;;11.52;;
66342;SDS011;53144;51.524;5.080;2023-12-07T11:27:59;19.88;;;11.65;;
66342;SDS011;53144;51.524;5.080;2023-12-07T11:30:25;16.35;;;11.18;;
66342;SDS011;53144;51.524;5.080;2023-12-07T11:32:54;17.85;;;11.77;;
66342;SDS011;53144;51.524;5.080;2023-12-07T11:35:19;16.17;;;11.13;;
66342;SDS011;53144;51.524;5.080;2023-12-07T11:40:31;15.93;;;10.35;;
66342;SDS011;53144;51.524;5.080;2023-12-07T11:43:01;15.60;;;10.38;;
66342;SDS011;53144;51.524;5.080;2023-12-07T11:45:36;13.95;;;10.20;;
66342;SDS011;53144;51.524;5.080;2023-12-07T11:48:05;15.25;;;10.63;;
66342;SDS011;53144;51.524;5.080;2023-12-07T11:50:34;16.70;;;10.85;;
66342;SDS011;53144;51.524;5.080;2023-12-07T11:53:00;16.10;;;9.90;;
66342;SDS011;53144;51.524;5.080;2023-12-07T11:55:25;16.15;;;10.93;;
66342;SDS011;53144;51.524;5.080;2023-12-07T11:57:54;14.93;;;9.73;;
66342;SDS011;53144;51.524;5.080;2023-12-07T12:00:19;15.93;;;10.57;;
66342;SDS011;53144;51.524;5.080;2023-12-07T12:02:47;17.88;;;9.70;;
66342;SDS011;53144;51.524;5.080;2023-12-07T12:05:13;16.45;;;10.45;;
66342;SDS011;53144;51.524;5.080;2023-12-07T12:07:38;13.85;;;9.82;;
66342;SDS011;53144;51.524;5.080;2023-12-07T12:10:04;13.65;;;9.60;;
66342;SDS011;53144;51.524;5.080;2023-12-07T12:12:32;15.25;;;9.00;;
66342;SDS011;53144;51.524;5.080;2023-12-07T12:14:58;12.82;;;9.55;;
66342;SDS011;53144;51.524;5.080;2023-12-07T12:17:23;14.07;;;9.65;;
66342;SDS011;53144;51.524;5.080;2023-12-07T12:19:49;15.85;;;10.10;;
66342;SDS011;53144;51.524;5.080;2023-12-07T12:22:19;16.15;;;10.30;;
66342;SDS011;53144;51.524;5.080;2023-12-07T12:24:45;12.38;;;9.13;;
66342;SDS011;53144;51.524;5.080;2023-12-07T12:27:11;20.02;;;9.52;;
66342;SDS011;53144;51.524;5.080;2023-12-07T12:29:38;13.57;;;8.77;;
66342;SDS011;53144;51.524;5.080;2023-12-07T12:32:05;14.93;;;9.57;;
66342;SDS011;53144;51.524;5.080;2023-12-07T12:34:34;15.10;;;7.90;;
66342;SDS011;53144;51.524;5.080;2023-12-07T12:36:59;12.55;;;8.93;;
66342;SDS011;53144;51.524;5.080;2023-12-07T12:39:28;15.02;;;9.18;;
66342;SDS011;53144;51.524;5.080;2023-12-07T12:41:55;15.02;;;8.80;;
66342;SDS011;53144;51.524;5.080;2023-12-07T12:44:22;12.70;;;8.60;;
66342;SDS011;53144;51.524;5.080;2023-12-07T12:46:48;11.02;;;8.27;;
66342;SDS011;53144;51.524;5.080;2023-12-07T12:49:14;11.82;;;8.13;;
66342;SDS011;53144;51.524;5.080;2023-12-07T12:51:39;15.63;;;8.10;;
66342;SDS011;53144;51.524;5.080;2023-12-07T12:54:04;13.13;;;8.20;;
66342;SDS011;53144;51.524;5.080;2023-12-07T12:56:30;14.20;;;8.15;;
66342;SDS011;53144;51.524;5.080;2023-12-07T12:58:55;13.02;;;8.07;;
66342;SDS011;53144;51.524;5.080;2023-12-07T13:01:22;11.75;;;7.13;;
66342;SDS011;53144;51.524;5.080;2023-12-07T13:03:47;11.35;;;7.55;;
66342;SDS011;53144;51.524;5.080;2023-12-07T13:06:14;10.32;;;7.53;;
66342;SDS011;53144;51.524;5.080;2023-12-07T13:08:40;9.40;;;7.28;;
66342;SDS011;53144;51.524;5.080;2023-12-07T13:11:06;14.75;;;8.15;;
66342;SDS011;53144;51.524;5.080;2023-12-07T13:13:32;12.43;;;7.75;;
66342;SDS011;53144;51.524;5.080;2023-12-07T13:15:58;12.00;;;8.27;;
66342;SDS011;53144;51.524;5.080;2023-12-07T13:18:23;13.00;;;8.55;;
66342;SDS011;53144;51.524;5.080;2023-12-07T13:20:48;12.95;;;8.27;;
66342;SDS011;53144;51.524;5.080;2023-12-07T13:23:14;11.88;;;8.38;;
66342;SDS011;53144;51.524;5.080;2023-12-07T13:25:39;11.73;;;8.38;;
66342;SDS011;53144;51.524;5.080;2023-12-07T13:28:06;12.07;;;8.25;;
66342;SDS011;53144;51.524;5.080;2023-12-07T13:30:33;13.27;;;8.10;;
66342;SDS011;53144;51.524;5.080;2023-12-07T13:33:00;10.50;;;8.27;;
66342;SDS011;53144;51.524;5.080;2023-12-07T13:37:51;12.35;;;8.15;;
66342;SDS011;53144;51.524;5.080;2023-12-07T13:40:17;11.85;;;9.07;;
66342;SDS011;53144;51.524;5.080;2023-12-07T13:42:42;11.77;;;8.85;;
66342;SDS011;53144;51.524;5.080;2023-12-07T13:45:08;14.40;;;8.38;;
66342;SDS011;53144;51.524;5.080;2023-12-07T13:47:33;12.35;;;9.10;;
66342;SDS011;53144;51.524;5.080;2023-12-07T13:50:02;12.35;;;8.93;;
66342;SDS011;53144;51.524;5.080;2023-12-07T13:52:29;11.43;;;9.13;;
66342;SDS011;53144;51.524;5.080;2023-12-07T13:54:55;15.23;;;9.05;;
66342;SDS011;53144;51.524;5.080;2023-12-07T13:57:24;12.15;;;9.30;;
66342;SDS011;53144;51.524;5.080;2023-12-07T13:59:50;13.27;;;9.32;;
66342;SDS011;53144;51.524;5.080;2023-12-07T14:02:19;12.73;;;9.15;;
66342;SDS011;53144;51.524;5.080;2023-12-07T14:04:45;15.63;;;9.85;;
66342;SDS011;53144;51.524;5.080;2023-12-07T14:07:15;11.52;;;8.82;;
66342;SDS011;53144;51.524;5.080;2023-12-07T14:09:45;13.80;;;9.27;;
66342;SDS011;53144;51.524;5.080;2023-12-07T14:12:15;16.52;;;8.95;;
66342;SDS011;53144;51.524;5.080;2023-12-07T14:14:41;13.05;;;9.00;;
66342;SDS011;53144;51.524;5.080;2023-12-07T14:17:12;12.20;;;8.82;;
66342;SDS011;53144;51.524;5.080;2023-12-07T14:19:38;16.48;;;8.93;;
66342;SDS011;53144;51.524;5.080;2023-12-07T14:22:03;14.25;;;9.88;;
66342;SDS011;53144;51.524;5.080;2023-12-07T14:24:29;13.63;;;9.25;;
66342;SDS011;53144;51.524;5.080;2023-12-07T14:26:56;12.13;;;8.85;;
66342;SDS011;53144;51.524;5.080;2023-12-07T14:29:22;13.88;;;9.50;;
66342;SDS011;53144;51.524;5.080;2023-12-07T14:31:50;14.90;;;10.40;;
66342;SDS011;53144;51.524;5.080;2023-12-07T14:34:19;15.57;;;9.30;;
66342;SDS011;53144;51.524;5.080;2023-12-07T14:39:13;17.10;;;9.63;;
66342;SDS011;53144;51.524;5.080;2023-12-07T14:41:49;19.15;;;10.40;;
66342;SDS011;53144;51.524;5.080;2023-12-07T14:44:18;15.83;;;10.33;;
66342;SDS011;53144;51.524;5.080;2023-12-07T14:49:13;17.13;;;9.73;;
66342;SDS011;53144;51.524;5.080;2023-12-07T14:51:44;15.07;;;10.48;;
66342;SDS011;53144;51.524;5.080;2023-12-07T14:54:10;16.50;;;10.68;;
66342;SDS011;53144;51.524;5.080;2023-12-07T14:56:36;19.23;;;11.25;;
66342;SDS011;53144;51.524;5.080;2023-12-07T14:59:02;17.13;;;10.82;;
66342;SDS011;53144;51.524;5.080;2023-12-07T15:01:28;17.02;;;12.02;;